Time;durP1;ratioP1;P1;durP2;ratioP2;P2;SDS_P1;SDS_P2;PMS_P1;PMS_P2;Temp;Humidity;BMP_temperature;BMP_pressure;BME280_temperature;BME280_humidity;BME280_pressure;Samples;Min_cycle;Max_cycle;Signal;HPM_P1;HPM_P2
2023/01/28 00:02:24;;;;;;;16.00;8.85;;;;;;;7.44;58.38;103144.66;5025425;28;20069;-45
2023/01/28 00:04:49;;;;;;;15.73;8.90;;;;;;;7.23;58.56;103136.44;5025588;28;20079;-50
2023/01/28 00:07:14;;;;;;;15.85;9.02;;;;;;;7.31;58.55;103141.31;5020894;28;20124;-43
2023/01/28 00:09:40;;;;;;;14.88;8.75;;;;;;;7.47;58.39;103137.97;5024597;28;20033;-45
2023/01/28 00:12:05;;;;;;;15.10;8.38;;;;;;;7.47;58.46;103137.06;5019809;28;20392;-43
2023/01/28 00:14:31;;;;;;;15.07;8.65;;;;;;;7.53;58.28;103146.13;5027695;28;20376;-42
2023/01/28 00:16:56;;;;;;;15.25;8.75;;;;;;;7.32;58.61;103134.38;5023650;28;20071;-44
2023/01/28 00:19:22;;;;;;;15.10;8.60;;;;;;;7.27;58.35;103126.31;5027581;28;20499;-44
2023/01/28 00:21:47;;;;;;;15.05;8.57;;;;;;;7.47;58.45;103122.38;5027078;28;20053;-43
2023/01/28 00:24:13;;;;;;;14.93;8.60;;;;;;;7.53;57.99;103127.94;5024024;28;20048;-45
2023/01/28 00:26:38;;;;;;;15.02;8.52;;;;;;;7.50;58.44;103122.56;5026860;28;20039;-42
2023/01/28 00:29:03;;;;;;;15.40;8.77;;;;;;;7.55;58.08;103118.56;5023487;28;20033;-44
2023/01/28 00:31:29;;;;;;;16.40;9.48;;;;;;;7.32;58.36;103124.00;5026756;28;20408;-45
2023/01/28 00:33:55;;;;;;;18.05;9.93;;;;;;;7.20;58.36;103121.56;5024022;28;20044;-43
2023/01/28 00:36:24;;;;;;;15.60;9.25;;;;;;;7.39;58.15;103115.81;5027693;28;20091;-46
2023/01/28 00:38:54;;;;;;;17.95;9.52;;;;;;;7.30;58.77;103129.13;5025278;28;20033;-43
2023/01/28 00:41:22;;;;;;;15.98;9.05;;;;;;;7.53;58.03;103124.44;5025209;28;20321;-43
2023/01/28 00:43:48;;;;;;;15.90;8.88;;;;;;;7.43;58.56;103130.78;5027251;28;20039;-44
2023/01/28 00:46:13;;;;;;;15.57;9.27;;;;;;;7.53;58.57;103122.75;5024019;28;20030;-43
2023/01/28 00:48:40;;;;;;;17.13;9.63;;;;;;;7.62;58.53;103128.50;5010189;28;20116;-44
2023/01/28 00:51:07;;;;;;;16.08;9.60;;;;;;;7.41;58.87;103119.41;5023271;28;20100;-43
2023/01/28 00:53:35;;;;;;;17.83;9.75;;;;;;;7.55;58.69;103125.47;5027412;28;20132;-46
2023/01/28 00:56:01;;;;;;;15.75;9.32;;;;;;;7.41;58.97;103119.41;5023763;28;20030;-43
2023/01/28 00:58:27;;;;;;;18.23;10.45;;;;;;;7.31;58.90;103130.94;5027292;28;20076;-46
2023/01/28 01:00:52;;;;;;;17.45;10.32;;;;;;;7.25;58.82;103135.75;5022936;28;20120;-47
2023/01/28 01:03:19;;;;;;;17.65;10.23;;;;;;;7.22;58.35;103137.22;5027814;28;20048;-43
2023/01/28 01:05:44;;;;;;;17.05;10.07;;;;;;;7.32;57.84;103132.69;5031506;28;20144;-43
2023/01/28 01:08:10;;;;;;;17.75;10.23;;;;;;;7.15;58.40;103137.63;5029478;28;20065;-43
2023/01/28 01:10:36;;;;;;;18.50;9.85;;;;;;;7.07;58.91;103134.56;5032964;28;20116;-43
2023/01/28 01:13:02;;;;;;;17.50;9.77;;;;;;;7.25;58.72;103137.44;5029401;28;20044;-45
2023/01/28 01:15:27;;;;;;;18.17;9.95;;;;;;;7.44;58.39;103140.34;5032893;28;20029;-47
2023/01/28 01:17:53;;;;;;;17.92;9.98;;;;;;;7.41;58.45;103136.69;5030066;28;20049;-44
2023/01/28 01:20:24;;;;;;;16.33;9.43;;;;;;;7.04;59.15;103139.56;5029580;28;20036;-46
2023/01/28 01:22:50;;;;;;;16.70;9.20;;;;;;;7.31;58.92;103141.31;5024929;28;20542;-55
2023/01/28 01:25:16;;;;;;;16.30;9.88;;;;;;;7.22;58.91;103135.53;5023651;28;20037;-44
2023/01/28 01:27:44;;;;;;;16.33;9.35;;;;;;;6.97;59.47;103128.69;5026796;28;20103;-43
2023/01/28 01:30:11;;;;;;;17.65;9.38;;;;;;;7.09;59.24;103132.97;5022539;28;20587;-42
2023/01/28 01:32:37;;;;;;;16.33;9.32;;;;;;;7.34;58.44;103131.09;5025532;28;20103;-43
2023/01/28 01:35:07;;;;;;;15.90;9.50;;;;;;;7.13;59.16;103126.28;5022103;28;20122;-44
2023/01/28 01:37:33;;;;;;;17.05;9.27;;;;;;;6.95;59.18;103118.25;5025371;28;20041;-43
2023/01/28 01:40:00;;;;;;;15.25;9.05;;;;;;;7.03;59.12;103129.97;5021284;28;20469;-43
2023/01/28 01:42:26;;;;;;;16.50;8.82;;;;;;;7.06;58.93;103131.88;5024373;28;20099;-44
2023/01/28 01:44:52;;;;;;;15.23;9.30;;;;;;;6.76;59.34;103123.94;5021262;28;20033;-47
2023/01/28 01:47:19;;;;;;;15.48;9.05;;;;;;;6.93;58.99;103130.19;5025766;28;20576;-46
2023/01/28 01:49:44;;;;;;;16.67;9.23;;;;;;;6.71;59.48;103130.50;5009788;28;20041;-45
2023/01/28 01:52:16;;;;;;;16.13;8.95;;;;;;;6.76;59.07;103136.00;5021680;28;20045;-43
2023/01/28 01:54:49;;;;;;;14.77;8.65;;;;;;;6.81;58.90;103132.91;5025891;28;20120;-46
2023/01/28 01:57:20;;;;;;;17.15;8.63;;;;;;;7.03;58.50;103127.38;5022294;28;20061;-43
2023/01/28 01:59:46;;;;;;;14.07;8.55;;;;;;;7.00;58.52;103129.78;5026149;28;20037;-43
2023/01/28 02:02:12;;;;;;;16.15;9.07;;;;;;;7.04;58.48;103126.59;5021389;28;20045;-44
2023/01/28 02:04:43;;;;;;;13.63;8.20;;;;;;;7.14;58.28;103125.44;5025765;28;20045;-43
2023/01/28 02:07:11;;;;;;;13.95;8.32;;;;;;;6.91;58.77;103131.78;5021049;28;20087;-45
2023/01/28 02:09:37;;;;;;;14.02;8.30;;;;;;;7.20;58.06;103131.03;5024841;28;20034;-43
2023/01/28 02:12:19;;;;;;;14.07;8.30;;;;;;;6.86;58.83;103139.28;5020455;28;20034;-43
2023/01/28 02:14:52;;;;;;;14.75;8.25;;;;;;;6.93;58.63;103145.75;5025412;28;20033;-43
2023/01/28 02:17:18;;;;;;;13.23;7.70;;;;;;;6.68;59.55;103137.19;5022097;28;20481;-43
2023/01/28 02:20:10;;;;;;;14.40;7.93;;;;;;;6.92;58.64;103147.44;5025738;28;20120;-47
2023/01/28 02:23:06;;;;;;;12.98;7.47;;;;;;;6.88;58.80;103150.66;5021800;28;20468;-44
2023/01/28 02:26:09;;;;;;;13.65;7.55;;;;;;;6.81;58.68;103151.06;5022655;28;20037;-45
2023/01/28 02:29:12;;;;;;;13.38;7.43;;;;;;;6.74;58.81;103159.22;5022197;28;20438;-43
2023/01/28 02:31:48;;;;;;;12.63;6.90;;;;;;;6.89;58.11;103152.44;5021595;28;20045;-47
2023/01/28 02:34:32;;;;;;;13.75;7.28;;;;;;;6.95;57.73;103151.06;5022111;28;20061;-43
2023/01/28 02:37:06;;;;;;;13.53;6.87;;;;;;;6.92;57.86;103160.41;5021888;28;20139;-43
2023/01/28 02:39:36;;;;;;;11.23;6.95;;;;;;;6.74;57.79;103148.84;5025827;28;20069;-43
2023/01/28 02:42:06;;;;;;;12.23;7.03;;;;;;;6.80;57.79;103144.06;5020853;28;20111;-43
2023/01/28 02:44:31;;;;;;;14.20;6.95;;;;;;;6.83;57.91;103143.38;5025382;28;20041;-42
2023/01/28 02:49:45;;;;;;;13.07;6.47;;;;;;;6.78;57.58;103150.84;5028120;28;20457;-42
2023/01/28 02:55:34;;;;;;;14.38;7.10;;;;;;;6.82;57.54;103150.25;5020989;28;20045;-43
2023/01/28 02:58:23;;;;;;;14.02;6.78;;;;;;;7.08;56.72;103146.72;5020071;28;20037;-43
2023/01/28 03:01:30;;;;;;;11.80;6.82;;;;;;;6.85;56.64;103153.03;5023622;28;20389;-43
2023/01/28 03:04:03;;;;;;;12.30;6.43;;;;;;;7.06;57.03;103161.31;4957202;28;20043;-43
2023/01/28 03:06:59;;;;;;;11.73;7.03;;;;;;;6.87;57.10;103158.31;4963878;28;20051;-43
2023/01/28 03:09:25;;;;;;;11.48;6.57;;;;;;;6.98;57.00;103167.69;5004344;28;20495;-45
2023/01/28 03:38:21;;;;;;;9.75;6.00;;;;;;;6.69;56.34;103136.41;5021782;28;20041;-44
2023/01/28 03:40:54;;;;;;;10.05;5.85;;;;;;;6.76;56.03;103142.09;5023916;28;20567;-44
2023/01/28 03:43:20;;;;;;;10.82;6.38;;;;;;;6.69;56.11;103144.19;5020692;28;20124;-47
2023/01/28 03:45:50;;;;;;;10.15;6.13;;;;;;;7.06;55.58;103145.75;5024017;28;20552;-42
2023/01/28 03:48:19;;;;;;;11.73;6.50;;;;;;;7.05;55.51;103151.72;5024689;28;20037;-45
2023/01/28 03:50:45;;;;;;;11.90;6.90;;;;;;;6.80;56.08;103157.03;5030384;28;20087;-46
2023/01/28 03:53:14;;;;;;;11.48;6.30;;;;;;;6.90;55.88;103158.50;5027135;28;20041;-45
2023/01/28 03:55:40;;;;;;;10.75;6.50;;;;;;;7.00;55.46;103166.09;5031091;28;20033;-43
2023/01/28 03:58:06;;;;;;;11.48;6.82;;;;;;;7.03;55.46;103168.88;5027162;28;20442;-43
2023/01/28 04:00:36;;;;;;;12.05;6.88;;;;;;;7.00;55.61;103173.88;5030031;28;20049;-43
2023/01/28 04:03:03;;;;;;;11.13;6.60;;;;;;;6.99;56.03;103172.09;5026743;28;20045;-43
2023/01/28 04:05:28;;;;;;;11.85;6.38;;;;;;;6.99;56.03;103171.19;5030633;28;20037;-42
2023/01/28 04:07:54;;;;;;;11.48;6.15;;;;;;;6.89;55.81;103174.91;5026772;28;20442;-44
2023/01/28 04:10:20;;;;;;;10.27;6.40;;;;;;;6.87;55.93;103177.38;5030055;28;20029;-45
2023/01/28 04:12:48;;;;;;;11.95;6.68;;;;;;;6.84;56.26;103174.56;5030524;28;20059;-42
2023/01/28 04:15:14;;;;;;;10.65;6.70;;;;;;;6.97;56.13;103178.84;5026928;28;20033;-42
2023/01/28 04:17:47;;;;;;;11.70;7.20;;;;;;;6.95;56.03;103171.78;5030217;28;20029;-42
2023/01/28 04:20:13;;;;;;;11.20;6.75;;;;;;;6.92;56.10;103168.19;5026696;28;20288;-44
2023/01/28 04:22:38;;;;;;;11.88;7.07;;;;;;;6.99;55.80;103172.09;5029547;28;20096;-44
2023/01/28 04:25:04;;;;;;;11.00;6.65;;;;;;;6.81;55.90;103170.91;5026635;28;20069;-43
2023/01/28 04:27:30;;;;;;;12.07;6.55;;;;;;;6.92;56.00;103173.38;5030536;28;20115;-43
2023/01/28 04:29:55;;;;;;;11.07;6.60;;;;;;;6.73;55.89;103174.66;5024604;28;20038;-43
2023/01/28 04:32:20;;;;;;;10.23;6.00;;;;;;;7.16;55.43;103178.34;5029344;28;20033;-42
2023/01/28 04:34:45;;;;;;;12.82;6.90;;;;;;;7.12;54.83;103163.41;5030273;28;20045;-44
2023/01/28 04:37:11;;;;;;;10.55;5.85;;;;;;;6.95;54.99;103164.03;5026397;28;20044;-42
2023/01/28 04:39:36;;;;;;;11.48;6.43;;;;;;;7.08;54.97;103159.69;5030119;28;20491;-42
2023/01/28 04:42:01;;;;;;;10.13;6.18;;;;;;;7.03;54.67;103157.59;5025367;28;20030;-45
2023/01/28 04:44:27;;;;;;;11.35;6.32;;;;;;;7.02;54.72;103161.00;5029718;28;20037;-42
2023/01/28 04:46:52;;;;;;;11.00;5.72;;;;;;;6.89;54.67;103161.94;5025228;28;20116;-43
2023/01/28 04:49:17;;;;;;;10.85;6.45;;;;;;;7.20;54.21;103154.38;5029605;28;20034;-45
2023/01/28 04:51:43;;;;;;;9.50;5.68;;;;;;;7.16;54.14;103158.50;5028617;28;20381;-43
2023/01/28 04:54:08;;;;;;;10.63;5.63;;;;;;;7.28;53.71;103148.00;5025895;28;20029;-46
2023/01/28 04:56:33;;;;;;;12.93;5.60;;;;;;;7.37;53.85;103151.16;5030252;28;20051;-43
2023/01/28 04:58:59;;;;;;;9.90;5.97;;;;;;;7.25;54.09;103153.00;5078144;22;20101;-44
2023/01/28 05:01:24;;;;;;;11.57;6.25;;;;;;;7.22;53.90;103155.38;5085715;28;20040;-42
2023/01/28 05:03:50;;;;;;;9.77;5.97;;;;;;;7.24;54.04;103162.47;5084682;28;20032;-41
2023/01/28 05:06:15;;;;;;;11.02;6.35;;;;;;;7.05;54.51;103172.47;5085941;28;20039;-41
2023/01/28 05:08:40;;;;;;;9.68;5.72;;;;;;;7.14;54.25;103167.88;5087757;28;20101;-40
2023/01/28 05:11:06;;;;;;;10.10;6.20;;;;;;;7.10;54.69;103173.66;5079699;28;20043;-44
2023/01/28 05:13:31;;;;;;;13.05;6.20;;;;;;;7.13;54.88;103173.88;5085067;28;20024;-44
2023/01/28 05:15:57;;;;;;;11.07;5.95;;;;;;;7.12;54.44;103177.25;5084261;28;20040;-41
2023/01/28 05:18:22;;;;;;;11.00;6.22;;;;;;;6.95;54.55;103170.09;5087734;28;20061;-44
2023/01/28 05:20:48;;;;;;;11.13;6.25;;;;;;;7.03;54.44;103166.28;5085432;28;20036;-42
2023/01/28 05:23:13;;;;;;;11.43;6.10;;;;;;;6.81;54.21;103155.34;5081066;28;20036;-42
2023/01/28 05:25:38;;;;;;;8.65;5.85;;;;;;;6.98;54.29;103159.91;5089593;28;20044;-41
2023/01/28 05:28:04;;;;;;;12.65;6.10;;;;;;;6.84;54.86;103152.94;5086067;28;20047;-41
2023/01/28 05:30:29;;;;;;;11.38;6.30;;;;;;;6.66;54.72;103172.47;5088269;28;20071;-41
2023/01/28 05:32:56;;;;;;;11.63;6.18;;;;;;;6.85;54.19;103160.81;5083195;28;20028;-42
2023/01/28 05:35:22;;;;;;;10.40;6.05;;;;;;;6.85;54.62;103153.03;5086887;28;20028;-41
2023/01/28 05:37:47;;;;;;;10.25;6.22;;;;;;;7.09;54.12;103148.53;5087546;28;20032;-41
2023/01/28 05:40:13;;;;;;;12.02;6.50;;;;;;;6.91;54.46;103148.25;5078970;28;20516;-41
2023/01/28 05:42:38;;;;;;;11.68;6.15;;;;;;;6.84;54.42;103158.13;5082291;28;20118;-46
2023/01/28 05:45:04;;;;;;;11.50;6.55;;;;;;;6.90;53.36;103156.81;5079397;28;20032;-42
2023/01/28 05:47:29;;;;;;;12.50;6.47;;;;;;;6.81;54.36;103142.38;5083391;28;20063;-45
2023/01/28 05:49:54;;;;;;;11.52;6.60;;;;;;;6.92;54.00;103146.56;5079135;28;20123;-42
2023/01/28 05:52:20;;;;;;;13.05;6.72;;;;;;;6.87;53.83;103146.25;5083262;28;20446;-41
2023/01/28 05:54:45;;;;;;;10.57;6.40;;;;;;;7.06;53.83;103148.34;5083619;28;20088;-43
2023/01/28 05:57:11;;;;;;;12.85;6.57;;;;;;;6.92;53.75;103152.63;5089000;28;20035;-45
2023/01/28 05:59:36;;;;;;;12.30;6.50;;;;;;;7.08;53.54;103145.81;5060052;28;1073587;-43
2023/01/28 06:02:01;;;;;;;10.52;6.55;;;;;;;7.05;53.28;103156.00;5083856;28;20498;-41
2023/01/28 06:04:27;;;;;;;10.90;6.32;;;;;;;7.10;53.59;103154.59;5084428;28;20101;-42
2023/01/28 06:06:52;;;;;;;12.48;6.85;;;;;;;7.20;53.65;103152.69;5079965;28;20036;-44
2023/01/28 06:09:17;;;;;;;11.40;6.68;;;;;;;7.02;53.31;103159.28;5083850;28;20509;-41
2023/01/28 06:11:44;;;;;;;11.40;6.45;;;;;;;7.10;53.67;103162.38;5082913;28;20444;-45
2023/01/28 06:14:10;;;;;;;12.23;6.25;;;;;;;6.99;54.01;103164.31;5061653;28;22434;-42
2023/01/28 06:16:35;;;;;;;12.30;6.32;;;;;;;6.87;53.98;103159.22;5083334;28;20065;-41
2023/01/28 06:19:01;;;;;;;11.60;6.55;;;;;;;7.06;54.07;103166.50;5079376;28;20032;-40
2023/01/28 06:21:26;;;;;;;10.95;6.45;;;;;;;6.93;54.07;103175.19;5082826;28;20054;-43
2023/01/28 06:23:52;;;;;;;11.93;6.65;;;;;;;7.03;53.76;103176.66;5079736;28;20058;-41
2023/01/28 06:26:17;;;;;;;12.75;7.00;;;;;;;6.83;53.86;103166.72;5083691;28;20119;-40
2023/01/28 06:28:42;;;;;;;12.32;6.60;;;;;;;7.00;54.00;103172.97;5083036;28;20035;-42
2023/01/28 06:31:08;;;;;;;10.68;6.68;;;;;;;7.11;54.16;103175.47;5078839;28;20036;-44
2023/01/28 06:33:33;;;;;;;12.13;7.22;;;;;;;7.03;53.97;103176.66;5083155;28;20035;-43
2023/01/28 06:36:01;;;;;;;11.07;6.75;;;;;;;7.02;53.78;103173.97;5084308;28;20040;-41
2023/01/28 06:38:27;;;;;;;11.80;6.85;;;;;;;7.01;53.84;103170.50;5088548;28;20040;-41
2023/01/28 06:40:54;;;;;;;14.02;7.43;;;;;;;7.01;53.90;103169.59;5081358;28;20494;-42
2023/01/28 06:43:26;;;;;;;17.33;9.77;;;;;;;7.07;54.10;103170.88;5083219;28;20040;-44
2023/01/28 06:45:52;;;;;;;13.38;7.93;;;;;;;7.08;54.23;103171.75;5078679;28;20038;-42
2023/01/28 06:48:17;;;;;;;11.45;6.97;;;;;;;6.98;54.12;103170.28;5082940;28;20032;-44
2023/01/28 06:50:46;;;;;;;13.50;7.78;;;;;;;7.00;54.06;103176.47;5082534;28;20032;-44
2023/01/28 06:53:11;;;;;;;12.32;7.20;;;;;;;7.00;53.84;103179.06;5079001;28;20062;-42
2023/01/28 06:55:36;;;;;;;13.80;7.80;;;;;;;7.07;54.06;103168.28;5083189;28;20056;-42
2023/01/28 06:58:02;;;;;;;12.77;7.30;;;;;;;7.00;54.43;103170.38;5080570;28;20469;-43
2023/01/28 07:00:27;;;;;;;13.52;7.70;;;;;;;7.00;53.81;103166.09;5086623;28;20040;-43
2023/01/28 07:02:55;;;;;;;13.68;7.63;;;;;;;6.80;54.49;103166.50;5082957;28;20058;-41
2023/01/28 07:05:20;;;;;;;13.10;7.70;;;;;;;6.90;54.21;103171.47;5087581;28;20028;-42
2023/01/28 07:07:46;;;;;;;13.35;7.57;;;;;;;6.90;54.37;103171.47;5088687;28;20032;-44
2023/01/28 07:10:11;;;;;;;13.88;7.82;;;;;;;6.96;54.47;103179.66;5083581;28;20422;-43
2023/01/28 07:12:36;;;;;;;13.10;8.23;;;;;;;6.87;54.51;103177.38;5084527;28;20437;-41
2023/01/28 07:15:02;;;;;;;13.07;7.57;;;;;;;6.87;54.48;103177.38;5078934;28;20494;-41
2023/01/28 07:17:27;;;;;;;13.23;7.53;;;;;;;6.71;54.75;103186.66;5083784;28;20028;-45
2023/01/28 07:19:52;;;;;;;12.52;7.40;;;;;;;6.82;54.48;103183.06;5079042;28;20035;-45
2023/01/28 07:22:18;;;;;;;13.25;7.47;;;;;;;6.89;54.75;103178.34;5081907;28;20452;-43
2023/01/28 07:24:43;;;;;;;13.48;7.47;;;;;;;6.93;54.31;103187.25;5083825;28;20109;-47
2023/01/28 07:27:08;;;;;;;12.73;7.35;;;;;;;6.99;53.89;103191.94;5084547;28;20540;-43
2023/01/28 07:29:34;;;;;;;14.25;7.30;;;;;;;6.92;54.12;103188.94;5089271;28;20043;-40
2023/01/28 07:31:59;;;;;;;13.48;7.13;;;;;;;6.86;54.94;103172.97;5084672;28;20024;-45
2023/01/28 07:34:24;;;;;;;14.68;7.63;;;;;;;6.85;53.88;103175.47;5089591;28;20506;-40
2023/01/28 07:36:50;;;;;;;12.52;7.13;;;;;;;6.78;54.08;103181.94;5088593;28;20028;-40
2023/01/28 07:39:15;;;;;;;12.93;7.50;;;;;;;6.58;54.88;103191.81;5087306;28;20556;-41
2023/01/28 07:41:40;;;;;;;13.98;7.25;;;;;;;6.67;54.24;103198.50;5089574;28;20529;-44
2023/01/28 07:44:06;;;;;;;12.93;7.50;;;;;;;6.77;54.08;103203.47;5081705;28;20071;-43
2023/01/28 07:46:31;;;;;;;13.32;7.65;;;;;;;6.74;54.38;103195.53;5086521;28;20529;-41
2023/01/28 07:48:56;;;;;;;14.48;7.80;;;;;;;6.72;54.51;103204.88;5084505;28;20398;-44
2023/01/28 07:51:22;;;;;;;13.75;7.70;;;;;;;6.65;54.99;103205.25;5093536;28;20485;-41
2023/01/28 07:53:47;;;;;;;13.25;7.80;;;;;;;6.72;55.12;103201.38;5093719;28;20525;-43
2023/01/28 07:56:12;;;;;;;14.48;7.78;;;;;;;6.75;55.19;103197.31;5087732;28;20038;-45
2023/01/28 07:58:38;;;;;;;14.65;8.38;;;;;;;6.83;55.38;103195.25;5091340;28;20047;-41
2023/01/28 08:01:03;;;;;;;13.07;7.65;;;;;;;6.84;55.15;103213.47;5088384;28;20498;-42
2023/01/28 08:03:29;;;;;;;13.82;8.35;;;;;;;6.85;55.35;103210.06;5089027;28;20418;-46
2023/01/28 08:05:55;;;;;;;13.30;7.65;;;;;;;6.90;55.77;103212.97;5086839;28;20046;-41
2023/01/28 08:08:26;;;;;;;14.48;8.10;;;;;;;6.85;54.56;103223.03;5090900;28;20035;-41
2023/01/28 08:10:51;;;;;;;15.40;8.52;;;;;;;7.07;54.43;103216.69;5086058;28;20083;-42
2023/01/28 08:13:18;;;;;;;16.15;8.75;;;;;;;6.98;54.40;103221.25;5089559;28;20091;-43
2023/01/28 08:15:44;;;;;;;15.32;8.63;;;;;;;7.03;54.83;103227.63;5082705;28;20039;-39
2023/01/28 08:18:12;;;;;;;14.57;8.32;;;;;;;7.12;55.15;103217.88;5077857;28;20036;-43
2023/01/28 08:20:38;;;;;;;13.18;7.88;;;;;;;7.30;54.15;103221.63;5081816;28;20144;-41
2023/01/28 08:23:19;;;;;;;16.08;8.30;;;;;;;7.28;53.89;103226.72;5060041;28;20385;-44
2023/01/28 08:25:46;;;;;;;14.30;7.43;;;;;;;7.19;52.95;103233.03;5082438;28;20047;-43
2023/01/28 08:28:12;;;;;;;14.07;7.93;;;;;;;7.26;53.75;103245.56;5078377;28;20032;-41
2023/01/28 08:30:38;;;;;;;14.00;7.53;;;;;;;7.22;53.12;103234.13;5086724;28;20032;-41
2023/01/28 08:33:07;;;;;;;12.52;7.18;;;;;;;7.34;52.63;103247.88;5083776;28;20024;-40
2023/01/28 08:35:33;;;;;;;14.07;8.18;;;;;;;7.44;52.64;103244.16;5092046;28;20036;-40
2023/01/28 08:38:00;;;;;;;13.00;7.85;;;;;;;7.42;52.67;103247.47;5088351;28;20031;-41
2023/01/28 08:40:26;;;;;;;13.30;7.63;;;;;;;7.44;52.38;103241.56;5090595;28;20371;-46
2023/01/28 08:42:52;;;;;;;13.95;8.18;;;;;;;7.56;52.48;103234.56;5087486;28;20042;-40
2023/01/28 08:45:24;;;;;;;14.55;8.02;;;;;;;7.60;52.29;103241.75;5090135;28;20032;-41
2023/01/28 08:47:55;;;;;;;13.32;7.22;;;;;;;7.70;52.17;103251.00;5090975;28;20056;-41
2023/01/28 08:50:22;;;;;;;14.52;7.95;;;;;;;7.67;52.16;103256.91;5087127;28;20032;-41
2023/01/28 08:52:53;;;;;;;14.35;8.43;;;;;;;7.66;52.52;103254.22;5086343;28;20064;-45
2023/01/28 08:55:18;;;;;;;15.32;8.02;;;;;;;7.52;51.88;103250.75;5081462;28;20032;-43
2023/01/28 08:57:44;;;;;;;14.85;8.23;;;;;;;7.60;51.54;103256.44;5085918;28;20050;-42
2023/01/28 09:00:10;;;;;;;16.35;8.55;;;;;;;7.54;51.87;103259.53;5082111;28;20031;-42
2023/01/28 09:02:37;;;;;;;14.35;8.00;;;;;;;7.70;51.80;103267.47;5086570;28;20375;-41
2023/01/28 09:05:03;;;;;;;12.90;7.65;;;;;;;7.83;52.07;103269.16;5086105;28;20475;-41
2023/01/28 09:07:28;;;;;;;16.77;8.32;;;;;;;7.93;51.40;103265.44;5070868;28;20790;-42
2023/01/28 09:09:53;;;;;;;13.30;7.53;;;;;;;7.90;51.31;103266.13;5081626;28;20047;-41
2023/01/28 09:12:19;;;;;;;16.58;8.27;;;;;;;7.89;51.16;103258.25;5084551;28;20024;-45
2023/01/28 09:14:44;;;;;;;13.15;8.00;;;;;;;7.89;51.72;103264.34;5085363;28;20080;-42
2023/01/28 09:17:09;;;;;;;13.77;8.18;;;;;;;7.98;51.38;103267.53;5080836;28;20154;-40
2023/01/28 09:19:35;;;;;;;14.95;8.02;;;;;;;8.19;50.99;103282.59;5064824;28;20085;-42
2023/01/28 09:22:03;;;;;;;15.18;8.57;;;;;;;8.42;51.12;103282.34;5079556;28;20047;-44
2023/01/28 09:24:28;;;;;;;14.45;7.78;;;;;;;8.27;50.14;103274.50;5084700;28;20040;-42
2023/01/28 09:26:53;;;;;;;13.32;7.97;;;;;;;8.34;48.78;103288.78;5080946;28;20032;-44
2023/01/28 09:29:19;;;;;;;12.43;7.38;;;;;;;8.35;49.41;103280.19;5084846;28;20036;-43
2023/01/28 09:31:44;;;;;;;13.02;7.70;;;;;;;8.37;49.41;103286.38;5083634;28;20043;-43
2023/01/28 09:34:09;;;;;;;11.55;7.20;;;;;;;8.11;49.99;103290.81;5080927;28;23064;-43
2023/01/28 09:36:35;;;;;;;12.77;7.80;;;;;;;8.05;50.31;103290.44;5085173;28;20063;-44
2023/01/28 09:39:01;;;;;;;12.27;7.55;;;;;;;8.21;50.38;103305.31;5084398;28;20044;-41
2023/01/28 09:41:31;;;;;;;12.52;7.40;;;;;;;8.15;49.83;103303.22;5087820;28;20036;-44
2023/01/28 09:44:29;;;;;;;12.40;7.30;;;;;;;8.20;49.97;103300.00;5083838;28;20046;-42
2023/01/28 09:47:01;;;;;;;13.60;8.02;;;;;;;7.90;49.95;103296.41;5082947;28;20044;-40
2023/01/28 09:49:37;;;;;;;13.23;7.60;;;;;;;8.01;49.33;103292.78;5085756;28;20452;-40
2023/01/28 09:52:03;;;;;;;17.05;7.80;;;;;;;7.75;50.43;103296.31;5079519;28;20089;-42
2023/01/28 09:54:37;;;;;;;13.85;7.47;;;;;;;7.51;51.18;103298.25;5084753;28;20051;-41
2023/01/28 09:57:12;;;;;;;12.93;7.63;;;;;;;7.74;50.11;103303.22;5083036;28;20039;-45
2023/01/28 09:59:38;;;;;;;13.88;7.63;;;;;;;7.83;49.88;103308.09;5102563;28;20100;-45
2023/01/28 10:02:25;;;;;;;13.40;7.65;;;;;;;7.66;49.99;103309.63;5092369;28;20043;-44
2023/01/28 10:05:09;;;;;;;12.38;7.28;;;;;;;7.82;50.03;103323.56;5081687;28;20044;-39
2023/01/28 10:07:42;;;;;;;13.13;7.65;;;;;;;7.75;50.08;103322.28;5084430;28;20074;-41
2023/01/28 10:10:14;;;;;;;11.95;7.30;;;;;;;7.72;51.40;103316.91;5080527;28;20043;-43
2023/01/28 10:13:00;;;;;;;14.32;7.55;;;;;;;7.33;51.61;103310.94;5083608;28;20084;-44
2023/01/28 10:15:44;;;;;;;14.20;7.70;;;;;;;7.33;52.46;103308.34;5080524;28;20040;-41
2023/01/28 10:18:11;;;;;;;14.38;7.97;;;;;;;7.57;51.92;103305.53;5085920;28;20111;-41
2023/01/28 10:20:47;;;;;;;12.05;7.07;;;;;;;7.53;51.29;103303.56;5091805;28;20058;-40
2023/01/28 10:23:18;;;;;;;12.93;7.20;;;;;;;7.50;51.02;103296.47;5088051;28;20029;-43
2023/01/28 10:25:47;;;;;;;12.77;6.25;;;;;;;7.80;50.58;103305.31;5091278;28;20046;-43
2023/01/28 10:28:38;;;;;;;12.80;6.70;;;;;;;7.70;50.04;103302.94;5086806;28;20051;-43
2023/01/28 10:31:12;;;;;;;10.82;6.30;;;;;;;7.84;49.50;103298.63;5079163;28;20078;-42
2023/01/28 10:33:38;;;;;;;11.00;6.43;;;;;;;7.74;49.25;103300.63;5088027;28;20520;-41
2023/01/28 10:36:05;;;;;;;12.20;6.57;;;;;;;7.81;49.88;103298.44;5083251;28;20043;-42
2023/01/28 10:38:31;;;;;;;12.18;6.38;;;;;;;7.89;50.58;103305.88;5083550;28;20051;-42
2023/01/28 10:41:00;;;;;;;10.95;6.10;;;;;;;7.86;50.00;103297.03;5078500;28;20036;-42
2023/01/28 10:43:31;;;;;;;10.40;6.20;;;;;;;7.69;50.12;103302.03;5083114;28;20481;-43
2023/01/28 10:46:00;;;;;;;11.65;6.40;;;;;;;7.96;49.45;103296.78;5079524;28;20042;-47
2023/01/28 10:48:31;;;;;;;12.85;6.55;;;;;;;7.97;49.96;103290.78;5083414;28;20032;-43
2023/01/28 10:51:00;;;;;;;11.88;6.38;;;;;;;7.79;50.47;103287.94;5080071;28;20093;-42
2023/01/28 10:53:36;;;;;;;12.70;6.88;;;;;;;7.81;50.12;103267.28;5084236;28;20568;-41
2023/01/28 10:56:04;;;;;;;12.63;6.72;;;;;;;8.04;49.34;103254.91;5079041;28;20046;-41
2023/01/28 10:58:33;;;;;;;13.43;7.03;;;;;;;8.04;49.83;103256.59;5099351;22;20040;-46
2023/01/28 11:01:02;;;;;;;11.00;6.47;;;;;;;7.90;49.79;103253.16;5058454;28;20039;-45
2023/01/28 11:03:29;;;;;;;14.63;7.13;;;;;;;8.09;49.17;103235.28;5062549;28;20119;-48
2023/01/28 11:05:56;;;;;;;12.23;6.95;;;;;;;8.16;49.81;103223.56;5057784;28;20047;-49
2023/01/28 11:08:24;;;;;;;16.05;6.80;;;;;;;7.95;50.34;103217.06;5063134;28;20028;-46
2023/01/28 11:10:51;;;;;;;12.40;7.03;;;;;;;7.59;50.38;103229.56;5062582;28;20032;-45
2023/01/28 11:13:21;;;;;;;11.55;6.72;;;;;;;7.95;50.38;103223.16;5058845;28;20401;-47
2023/01/28 11:15:52;;;;;;;14.30;6.82;;;;;;;7.93;50.36;103216.09;5064008;28;20028;-47
2023/01/28 11:18:25;;;;;;;12.30;6.18;;;;;;;8.21;49.36;103209.16;5062987;28;20056;-46
2023/01/28 11:21:06;;;;;;;13.27;6.20;;;;;;;8.41;49.19;103207.78;5061684;28;20047;-44
2023/01/28 11:23:37;;;;;;;10.68;5.45;;;;;;;8.00;50.07;103198.34;5065983;28;20044;-46
2023/01/28 11:26:13;;;;;;;11.70;5.82;;;;;;;7.86;49.94;103200.94;5059936;28;20041;-47
2023/01/28 11:28:41;;;;;;;10.45;5.78;;;;;;;8.26;48.92;103183.44;5066477;28;20082;-45
2023/01/28 11:31:08;;;;;;;11.65;5.35;;;;;;;8.40;48.42;103167.91;5060214;28;20032;-44
2023/01/28 11:33:42;;;;;;;12.05;6.70;;;;;;;8.56;49.18;103172.28;5064420;28;20087;-45
2023/01/28 11:36:16;;;;;;;12.90;7.78;;;;;;;8.23;49.89;103170.28;5058938;28;20115;-49
2023/01/28 11:38:59;;;;;;;12.43;7.47;;;;;;;8.65;49.57;103180.63;5063031;28;20063;-46
2023/01/28 11:41:36;;;;;;;14.95;7.25;;;;;;;8.76;48.86;103189.03;5057137;28;20106;-46
2023/01/28 11:44:25;;;;;;;15.40;7.80;;;;;;;8.49;49.73;103189.22;5058941;28;20040;-43
2023/01/28 11:47:26;;;;;;;13.20;7.65;;;;;;;8.96;49.07;103188.47;5058855;28;20060;-47
2023/01/28 11:50:29;;;;;;;16.17;7.80;;;;;;;8.70;47.88;103189.56;5058830;28;20155;-48
2023/01/28 11:53:21;;;;;;;12.68;7.53;;;;;;;8.67;48.77;103191.97;5058451;28;20036;-47
2023/01/28 11:55:46;;;;;;;12.27;7.28;;;;;;;8.66;49.18;103195.38;5062641;28;20495;-45
2023/01/28 11:58:36;;;;;;;13.68;7.85;;;;;;;8.19;49.57;103202.97;5058470;28;20044;-45
2023/01/28 12:01:26;;;;;;;13.93;7.07;;;;;;;8.46;48.74;103195.94;5058222;28;20473;-45
2023/01/28 12:03:55;;;;;;;12.85;7.28;;;;;;;8.13;48.83;103202.59;5059156;28;20186;-45
2023/01/28 12:06:36;;;;;;;14.18;7.60;;;;;;;8.31;49.03;103213.22;5063384;28;20040;-44